sensor_id;sensor_type;location;lat;lon;timestamp;temperature;humidity
21439;DHT22;10880;50.302;18.736;2023-07-20T00:01:29;25.10;48.30
21439;DHT22;10880;50.302;18.736;2023-07-20T00:03:55;25.10;48.20
21439;DHT22;10880;50.302;18.736;2023-07-20T00:06:25;25.10;48.30
21439;DHT22;10880;50.302;18.736;2023-07-20T00:08:55;25.10;48.70
21439;DHT22;10880;50.302;18.736;2023-07-20T00:11:26;25.00;48.10
21439;DHT22;10880;50.302;18.736;2023-07-20T00:13:53;25.10;48.60
21439;DHT22;10880;50.302;18.736;2023-07-20T00:16:21;25.10;48.00
21439;DHT22;10880;50.302;18.736;2023-07-20T00:18:50;25.10;48.70
21439;DHT22;10880;50.302;18.736;2023-07-20T00:21:17;25.10;48.00
21439;DHT22;10880;50.302;18.736;2023-07-20T00:23:43;25.10;48.10
21439;DHT22;10880;50.302;18.736;2023-07-20T00:28:36;25.20;48.10
21439;DHT22;10880;50.302;18.736;2023-07-20T00:31:02;25.20;48.00
21439;DHT22;10880;50.302;18.736;2023-07-20T00:33:29;25.20;48.20
21439;DHT22;10880;50.302;18.736;2023-07-20T00:35:56;25.30;48.10
21439;DHT22;10880;50.302;18.736;2023-07-20T00:38:22;25.30;48.30
21439;DHT22;10880;50.302;18.736;2023-07-20T00:40:49;25.30;48.30
21439;DHT22;10880;50.302;18.736;2023-07-20T00:43:17;25.30;48.30
21439;DHT22;10880;50.302;18.736;2023-07-20T00:45:45;24.90;48.30
21439;DHT22;10880;50.302;18.736;2023-07-20T00:48:11;25.40;48.50
21439;DHT22;10880;50.302;18.736;2023-07-20T00:50:39;25.40;48.50
21439;DHT22;10880;50.302;18.736;2023-07-20T00:53:06;25.40;48.60
21439;DHT22;10880;50.302;18.736;2023-07-20T00:55:34;25.30;48.50
21439;DHT22;10880;50.302;18.736;2023-07-20T00:58:00;25.30;48.90
21439;DHT22;10880;50.302;18.736;2023-07-20T01:00:27;25.40;48.90
21439;DHT22;10880;50.302;18.736;2023-07-20T01:02:54;25.30;48.80
21439;DHT22;10880;50.302;18.736;2023-07-20T01:05:21;25.30;48.90
21439;DHT22;10880;50.302;18.736;2023-07-20T01:08:07;25.30;49.40
21439;DHT22;10880;50.302;18.736;2023-07-20T01:10:45;25.30;49.10
21439;DHT22;10880;50.302;18.736;2023-07-20T01:13:14;25.30;49.70
21439;DHT22;10880;50.302;18.736;2023-07-20T01:15:41;25.20;49.50
21439;DHT22;10880;50.302;18.736;2023-07-20T01:18:08;25.20;49.30
21439;DHT22;10880;50.302;18.736;2023-07-20T01:20:35;25.20;49.50
21439;DHT22;10880;50.302;18.736;2023-07-20T01:31:37;25.10;49.50
21439;DHT22;10880;50.302;18.736;2023-07-20T01:34:06;25.10;50.00
21439;DHT22;10880;50.302;18.736;2023-07-20T01:36:35;25.00;50.00
21439;DHT22;10880;50.302;18.736;2023-07-20T01:39:02;25.00;49.80
21439;DHT22;10880;50.302;18.736;2023-07-20T01:41:31;25.00;50.10
21439;DHT22;10880;50.302;18.736;2023-07-20T01:44:00;24.90;49.80
21439;DHT22;10880;50.302;18.736;2023-07-20T01:46:26;24.90;50.20
21439;DHT22;10880;50.302;18.736;2023-07-20T01:48:54;24.90;50.00
21439;DHT22;10880;50.302;18.736;2023-07-20T01:51:21;24.90;50.00
21439;DHT22;10880;50.302;18.736;2023-07-20T01:53:48;24.90;50.10
21439;DHT22;10880;50.302;18.736;2023-07-20T01:56:15;24.90;49.80
21439;DHT22;10880;50.302;18.736;2023-07-20T01:58:41;25.00;50.10
21439;DHT22;10880;50.302;18.736;2023-07-20T02:01:07;24.90;50.00
21439;DHT22;10880;50.302;18.736;2023-07-20T02:06:03;24.90;50.00
21439;DHT22;10880;50.302;18.736;2023-07-20T02:08:31;24.90;50.00
21439;DHT22;10880;50.302;18.736;2023-07-20T02:10:57;24.90;49.90
21439;DHT22;10880;50.302;18.736;2023-07-20T02:15:50;24.90;49.90
21439;DHT22;10880;50.302;18.736;2023-07-20T02:20:44;24.90;49.70
21439;DHT22;10880;50.302;18.736;2023-07-20T02:25:37;24.90;49.80
21439;DHT22;10880;50.302;18.736;2023-07-20T02:28:04;24.90;49.90
21439;DHT22;10880;50.302;18.736;2023-07-20T02:30:31;24.90;50.00
21439;DHT22;10880;50.302;18.736;2023-07-20T02:32:57;24.90;49.80
21439;DHT22;10880;50.302;18.736;2023-07-20T02:35:24;24.90;49.70
21439;DHT22;10880;50.302;18.736;2023-07-20T02:40:21;24.90;49.70
21439;DHT22;10880;50.302;18.736;2023-07-20T02:42:47;24.80;50.00
21439;DHT22;10880;50.302;18.736;2023-07-20T02:47:40;24.80;49.60
21439;DHT22;10880;50.302;18.736;2023-07-20T02:50:08;24.90;49.80
21439;DHT22;10880;50.302;18.736;2023-07-20T02:52:34;24.80;49.70
21439;DHT22;10880;50.302;18.736;2023-07-20T02:55:01;24.80;49.60
21439;DHT22;10880;50.302;18.736;2023-07-20T02:57:27;24.80;49.50
21439;DHT22;10880;50.302;18.736;2023-07-20T03:02:21;24.70;49.40
21439;DHT22;10880;50.302;18.736;2023-07-20T03:07:14;24.70;49.40
21439;DHT22;10880;50.302;18.736;2023-07-20T03:12:08;24.70;49.60
21439;DHT22;10880;50.302;18.736;2023-07-20T03:24:25;24.50;49.40
21439;DHT22;10880;50.302;18.736;2023-07-20T03:26:52;24.50;49.80
21439;DHT22;10880;50.302;18.736;2023-07-20T03:29:20;24.50;49.50
21439;DHT22;10880;50.302;18.736;2023-07-20T03:31:47;24.50;49.50
21439;DHT22;10880;50.302;18.736;2023-07-20T03:36:40;24.40;49.50
21439;DHT22;10880;50.302;18.736;2023-07-20T03:39:07;24.40;49.50
21439;DHT22;10880;50.302;18.736;2023-07-20T03:44:02;24.40;49.60
21439;DHT22;10880;50.302;18.736;2023-07-20T03:48:55;24.40;49.70
21439;DHT22;10880;50.302;18.736;2023-07-20T03:51:22;24.30;49.60
21439;DHT22;10880;50.302;18.736;2023-07-20T03:58:41;24.30;49.80
21439;DHT22;10880;50.302;18.736;2023-07-20T04:01:08;24.30;49.80
21439;DHT22;10880;50.302;18.736;2023-07-20T04:03:35;24.20;50.20
21439;DHT22;10880;50.302;18.736;2023-07-20T04:06:02;24.30;50.30
21439;DHT22;10880;50.302;18.736;2023-07-20T04:08:29;24.20;50.10
21439;DHT22;10880;50.302;18.736;2023-07-20T04:10:56;24.20;50.00
21439;DHT22;10880;50.302;18.736;2023-07-20T04:13:23;24.20;50.20
21439;DHT22;10880;50.302;18.736;2023-07-20T04:15:49;24.20;50.30
21439;DHT22;10880;50.302;18.736;2023-07-20T04:18:16;24.20;50.20
21439;DHT22;10880;50.302;18.736;2023-07-20T04:20:42;24.20;50.20
21439;DHT22;10880;50.302;18.736;2023-07-20T04:25:35;24.10;50.50
21439;DHT22;10880;50.302;18.736;2023-07-20T04:28:09;24.10;50.70
21439;DHT22;10880;50.302;18.736;2023-07-20T04:30:37;24.10;51.30
21439;DHT22;10880;50.302;18.736;2023-07-20T04:33:04;24.10;51.20
21439;DHT22;10880;50.302;18.736;2023-07-20T04:35:53;24.10;51.00
21439;DHT22;10880;50.302;18.736;2023-07-20T04:38:32;24.10;51.10
21439;DHT22;10880;50.302;18.736;2023-07-20T04:43:44;24.00;50.90
21439;DHT22;10880;50.302;18.736;2023-07-20T04:46:12;24.00;51.20
21439;DHT22;10880;50.302;18.736;2023-07-20T04:48:39;24.00;51.30
21439;DHT22;10880;50.302;18.736;2023-07-20T04:51:06;24.00;51.50
21439;DHT22;10880;50.302;18.736;2023-07-20T04:53:33;24.00;51.50
21439;DHT22;10880;50.302;18.736;2023-07-20T05:00:54;24.00;51.60
21439;DHT22;10880;50.302;18.736;2023-07-20T05:03:21;23.90;51.60
21439;DHT22;10880;50.302;18.736;2023-07-20T05:05:49;23.90;51.80
21439;DHT22;10880;50.302;18.736;2023-07-20T05:08:15;23.90;51.80
21439;DHT22;10880;50.302;18.736;2023-07-20T05:10:42;24.00;52.00
21439;DHT22;10880;50.302;18.736;2023-07-20T05:13:09;24.00;51.90
21439;DHT22;10880;50.302;18.736;2023-07-20T05:15:35;23.90;51.90
21439;DHT22;10880;50.302;18.736;2023-07-20T05:20:30;24.00;52.10
21439;DHT22;10880;50.302;18.736;2023-07-20T05:22:57;24.00;52.50
21439;DHT22;10880;50.302;18.736;2023-07-20T05:27:51;23.90;52.40
21439;DHT22;10880;50.302;18.736;2023-07-20T05:32:45;23.90;52.40
21439;DHT22;10880;50.302;18.736;2023-07-20T05:35:17;23.90;52.50
21439;DHT22;10880;50.302;18.736;2023-07-20T05:37:45;23.90;53.00
21439;DHT22;10880;50.302;18.736;2023-07-20T05:40:12;24.00;52.70
21439;DHT22;10880;50.302;18.736;2023-07-20T05:45:07;23.90;52.60
21439;DHT22;10880;50.302;18.736;2023-07-20T05:47:33;24.00;52.80
21439;DHT22;10880;50.302;18.736;2023-07-20T05:50:01;24.00;52.80
21439;DHT22;10880;50.302;18.736;2023-07-20T05:52:29;24.00;53.10
21439;DHT22;10880;50.302;18.736;2023-07-20T05:54:56;24.00;52.70
21439;DHT22;10880;50.302;18.736;2023-07-20T05:57:22;24.00;52.90
21439;DHT22;10880;50.302;18.736;2023-07-20T05:59:49;24.10;53.00
21439;DHT22;10880;50.302;18.736;2023-07-20T06:02:16;24.10;53.00
21439;DHT22;10880;50.302;18.736;2023-07-20T06:09:39;24.20;53.00
21439;DHT22;10880;50.302;18.736;2023-07-20T06:12:08;24.20;53.20
21439;DHT22;10880;50.302;18.736;2023-07-20T06:14:35;24.20;53.00
21439;DHT22;10880;50.302;18.736;2023-07-20T06:17:02;24.30;53.00
21439;DHT22;10880;50.302;18.736;2023-07-20T06:19:29;24.30;53.30
21439;DHT22;10880;50.302;18.736;2023-07-20T06:21:55;24.30;53.00
21439;DHT22;10880;50.302;18.736;2023-07-20T06:26:50;24.40;53.00
21439;DHT22;10880;50.302;18.736;2023-07-20T06:31:45;24.40;52.90
21439;DHT22;10880;50.302;18.736;2023-07-20T06:34:12;24.50;53.00
21439;DHT22;10880;50.302;18.736;2023-07-20T06:39:13;24.50;53.00
21439;DHT22;10880;50.302;18.736;2023-07-20T06:41:46;24.50;53.00
21439;DHT22;10880;50.302;18.736;2023-07-20T06:44:14;24.60;53.20
21439;DHT22;10880;50.302;18.736;2023-07-20T06:46:41;24.60;53.40
21439;DHT22;10880;50.302;18.736;2023-07-20T06:49:08;24.70;53.10
21439;DHT22;10880;50.302;18.736;2023-07-20T06:51:35;24.80;53.30
21439;DHT22;10880;50.302;18.736;2023-07-20T06:54:01;24.90;53.50
21439;DHT22;10880;50.302;18.736;2023-07-20T06:56:30;25.00;53.30
21439;DHT22;10880;50.302;18.736;2023-07-20T07:08:49;25.30;52.60
21439;DHT22;10880;50.302;18.736;2023-07-20T07:11:16;25.40;52.50
21439;DHT22;10880;50.302;18.736;2023-07-20T07:16:09;25.60;52.60
21439;DHT22;10880;50.302;18.736;2023-07-20T07:21:02;25.70;52.40
21439;DHT22;10880;50.302;18.736;2023-07-20T07:23:30;25.60;52.20
21439;DHT22;10880;50.302;18.736;2023-07-20T07:25:56;25.80;52.30
21439;DHT22;10880;50.302;18.736;2023-07-20T07:28:23;25.80;52.40
21439;DHT22;10880;50.302;18.736;2023-07-20T07:38:13;26.00;51.70
21439;DHT22;10880;50.302;18.736;2023-07-20T07:43:06;26.00;51.50
21439;DHT22;10880;50.302;18.736;2023-07-20T07:45:35;26.00;51.50
21439;DHT22;10880;50.302;18.736;2023-07-20T07:48:05;26.00;51.40
21439;DHT22;10880;50.302;18.736;2023-07-20T07:53:11;26.00;51.30
21439;DHT22;10880;50.302;18.736;2023-07-20T07:55:40;26.00;51.30
21439;DHT22;10880;50.302;18.736;2023-07-20T07:58:07;26.00;51.30
21439;DHT22;10880;50.302;18.736;2023-07-20T08:00:35;26.00;51.30
21439;DHT22;10880;50.302;18.736;2023-07-20T08:03:02;26.00;51.30
21439;DHT22;10880;50.302;18.736;2023-07-20T08:05:28;26.00;51.30
21439;DHT22;10880;50.302;18.736;2023-07-20T08:07:56;26.00;51.30
21439;DHT22;10880;50.302;18.736;2023-07-20T08:10:23;26.00;51.20
21439;DHT22;10880;50.302;18.736;2023-07-20T08:12:49;26.00;51.20
21439;DHT22;10880;50.302;18.736;2023-07-20T08:17:43;26.00;51.10
21439;DHT22;10880;50.302;18.736;2023-07-20T08:20:13;26.00;51.00
21439;DHT22;10880;50.302;18.736;2023-07-20T08:25:07;25.90;50.90
21439;DHT22;10880;50.302;18.736;2023-07-20T08:34:55;26.00;51.30
21439;DHT22;10880;50.302;18.736;2023-07-20T08:39:49;26.00;51.40
21439;DHT22;10880;50.302;18.736;2023-07-20T08:44:48;26.00;51.30
21439;DHT22;10880;50.302;18.736;2023-07-20T08:47:16;26.10;51.30
21439;DHT22;10880;50.302;18.736;2023-07-20T08:49:50;26.10;51.40
21439;DHT22;10880;50.302;18.736;2023-07-20T08:52:17;26.20;51.40
21439;DHT22;10880;50.302;18.736;2023-07-20T08:54:43;26.20;51.20
21439;DHT22;10880;50.302;18.736;2023-07-20T08:57:13;26.20;51.30
21439;DHT22;10880;50.302;18.736;2023-07-20T08:59:43;26.20;51.90
21439;DHT22;10880;50.302;18.736;2023-07-20T09:02:14;26.30;51.60
21439;DHT22;10880;50.302;18.736;2023-07-20T09:04:45;26.30;51.60
21439;DHT22;10880;50.302;18.736;2023-07-20T09:07:14;26.40;51.60
21439;DHT22;10880;50.302;18.736;2023-07-20T09:19:48;26.70;51.30
21439;DHT22;10880;50.302;18.736;2023-07-20T09:22:15;26.70;51.20
21439;DHT22;10880;50.302;18.736;2023-07-20T09:24:44;26.60;50.90
21439;DHT22;10880;50.302;18.736;2023-07-20T09:27:10;26.70;51.10
21439;DHT22;10880;50.302;18.736;2023-07-20T09:29:53;26.70;51.10
21439;DHT22;10880;50.302;18.736;2023-07-20T09:32:21;26.70;51.10
21439;DHT22;10880;50.302;18.736;2023-07-20T09:34:50;26.70;51.30
21439;DHT22;10880;50.302;18.736;2023-07-20T09:37:21;26.80;51.30
21439;DHT22;10880;50.302;18.736;2023-07-20T09:39:52;26.80;51.30
21439;DHT22;10880;50.302;18.736;2023-07-20T09:42:22;26.80;51.30
21439;DHT22;10880;50.302;18.736;2023-07-20T09:44:52;26.90;51.40
21439;DHT22;10880;50.302;18.736;2023-07-20T09:47:22;26.90;51.40
21439;DHT22;10880;50.302;18.736;2023-07-20T09:52:19;27.00;51.50
21439;DHT22;10880;50.302;18.736;2023-07-20T09:54:48;27.10;51.40
21439;DHT22;10880;50.302;18.736;2023-07-20T09:59:44;27.20;51.30
21439;DHT22;10880;50.302;18.736;2023-07-20T10:02:20;27.30;51.10
21439;DHT22;10880;50.302;18.736;2023-07-20T10:04:52;27.30;51.10
21439;DHT22;10880;50.302;18.736;2023-07-20T10:07:22;27.40;51.00
21439;DHT22;10880;50.302;18.736;2023-07-20T10:09:52;27.40;50.90
21439;DHT22;10880;50.302;18.736;2023-07-20T10:12:19;27.40;50.80
21439;DHT22;10880;50.302;18.736;2023-07-20T10:15:01;27.50;50.80
21439;DHT22;10880;50.302;18.736;2023-07-20T10:20:01;27.50;50.70
21439;DHT22;10880;50.302;18.736;2023-07-20T10:22:35;27.60;50.70
21439;DHT22;10880;50.302;18.736;2023-07-20T10:25:02;27.60;50.60
21439;DHT22;10880;50.302;18.736;2023-07-20T10:29:58;27.70;50.70
21439;DHT22;10880;50.302;18.736;2023-07-20T10:34:58;27.80;50.60
21439;DHT22;10880;50.302;18.736;2023-07-20T10:37:53;27.80;50.80
21439;DHT22;10880;50.302;18.736;2023-07-20T10:40:30;27.80;50.90
21439;DHT22;10880;50.302;18.736;2023-07-20T10:42:58;27.90;51.00
21439;DHT22;10880;50.302;18.736;2023-07-20T10:48:03;28.00;50.50
21439;DHT22;10880;50.302;18.736;2023-07-20T10:50:33;28.10;50.30
21439;DHT22;10880;50.302;18.736;2023-07-20T10:53:14;28.10;50.00
21439;DHT22;10880;50.302;18.736;2023-07-20T10:55:41;28.10;50.50
21439;DHT22;10880;50.302;18.736;2023-07-20T10:58:11;28.20;49.80
21439;DHT22;10880;50.302;18.736;2023-07-20T11:00:57;28.20;49.70
21439;DHT22;10880;50.302;18.736;2023-07-20T11:05:57;28.20;49.70
21439;DHT22;10880;50.302;18.736;2023-07-20T11:08:42;28.30;49.40
21439;DHT22;10880;50.302;18.736;2023-07-20T11:11:22;28.30;49.90
21439;DHT22;10880;50.302;18.736;2023-07-20T11:13:59;28.30;49.70
21439;DHT22;10880;50.302;18.736;2023-07-20T11:16:39;28.30;49.80
21439;DHT22;10880;50.302;18.736;2023-07-20T11:19:14;28.30;49.70
21439;DHT22;10880;50.302;18.736;2023-07-20T11:21:43;28.30;49.60
21439;DHT22;10880;50.302;18.736;2023-07-20T11:24:10;28.30;49.50
21439;DHT22;10880;50.302;18.736;2023-07-20T11:26:42;28.30;49.20
21439;DHT22;10880;50.302;18.736;2023-07-20T11:29:08;28.30;49.20
21439;DHT22;10880;50.302;18.736;2023-07-20T11:31:40;28.30;48.80
21439;DHT22;10880;50.302;18.736;2023-07-20T11:34:10;28.30;48.60
21439;DHT22;10880;50.302;18.736;2023-07-20T11:36:39;28.30;49.20
21439;DHT22;10880;50.302;18.736;2023-07-20T11:39:11;28.40;48.50
21439;DHT22;10880;50.302;18.736;2023-07-20T11:41:38;28.40;49.20
21439;DHT22;10880;50.302;18.736;2023-07-20T11:44:06;28.40;48.40
21439;DHT22;10880;50.302;18.736;2023-07-20T11:46:34;28.40;49.00
21439;DHT22;10880;50.302;18.736;2023-07-20T11:49:01;28.40;48.30
21439;DHT22;10880;50.302;18.736;2023-07-20T11:51:28;28.40;48.80
21439;DHT22;10880;50.302;18.736;2023-07-20T11:53:58;28.40;48.40
21439;DHT22;10880;50.302;18.736;2023-07-20T11:56:26;28.40;48.30
21439;DHT22;10880;50.302;18.736;2023-07-20T11:58:59;28.40;48.80
21439;DHT22;10880;50.302;18.736;2023-07-20T12:01:28;28.40;48.90
21439;DHT22;10880;50.302;18.736;2023-07-20T12:03:56;28.40;48.80
21439;DHT22;10880;50.302;18.736;2023-07-20T12:06:24;28.40;48.60
21439;DHT22;10880;50.302;18.736;2023-07-20T12:08:54;28.40;48.80
21439;DHT22;10880;50.302;18.736;2023-07-20T12:11:37;28.40;48.70
21439;DHT22;10880;50.302;18.736;2023-07-20T12:14:07;28.40;48.50
21439;DHT22;10880;50.302;18.736;2023-07-20T12:16:35;28.40;47.90
21439;DHT22;10880;50.302;18.736;2023-07-20T12:19:03;28.40;47.80
21439;DHT22;10880;50.302;18.736;2023-07-20T12:21:30;28.40;47.70
21439;DHT22;10880;50.302;18.736;2023-07-20T12:23:58;28.40;48.30
21439;DHT22;10880;50.302;18.736;2023-07-20T12:26:29;28.40;48.30
21439;DHT22;10880;50.302;18.736;2023-07-20T12:28:58;28.40;48.10
21439;DHT22;10880;50.302;18.736;2023-07-20T12:31:25;28.40;47.50
21439;DHT22;10880;50.302;18.736;2023-07-20T12:33:52;28.40;48.00
21439;DHT22;10880;50.302;18.736;2023-07-20T12:36:20;28.40;47.80
21439;DHT22;10880;50.302;18.736;2023-07-20T12:38:47;28.50;47.50
21439;DHT22;10880;50.302;18.736;2023-07-20T12:41:13;28.50;47.60
21439;DHT22;10880;50.302;18.736;2023-07-20T12:43:46;28.50;47.80
21439;DHT22;10880;50.302;18.736;2023-07-20T12:46:13;28.50;47.50
21439;DHT22;10880;50.302;18.736;2023-07-20T12:48:40;28.50;47.50
21439;DHT22;10880;50.302;18.736;2023-07-20T12:51:09;28.50;47.70
21439;DHT22;10880;50.302;18.736;2023-07-20T12:53:36;28.50;46.90
21439;DHT22;10880;50.302;18.736;2023-07-20T12:56:03;28.50;46.90
21439;DHT22;10880;50.302;18.736;2023-07-20T12:58:29;28.50;47.30
21439;DHT22;10880;50.302;18.736;2023-07-20T13:00:56;28.50;47.00
21439;DHT22;10880;50.302;18.736;2023-07-20T13:03:22;28.50;46.90
21439;DHT22;10880;50.302;18.736;2023-07-20T13:05:49;28.50;47.30
21439;DHT22;10880;50.302;18.736;2023-07-20T13:08:16;28.50;47.20
21439;DHT22;10880;50.302;18.736;2023-07-20T13:10:44;28.50;46.70
21439;DHT22;10880;50.302;18.736;2023-07-20T13:13:10;28.50;46.90
21439;DHT22;10880;50.302;18.736;2023-07-20T13:15:44;28.50;46.90
21439;DHT22;10880;50.302;18.736;2023-07-20T13:18:10;28.50;46.80
21439;DHT22;10880;50.302;18.736;2023-07-20T13:20:37;28.50;47.00
21439;DHT22;10880;50.302;18.736;2023-07-20T13:23:04;28.40;47.10
21439;DHT22;10880;50.302;18.736;2023-07-20T13:25:31;28.50;46.70
21439;DHT22;10880;50.302;18.736;2023-07-20T13:27:58;28.40;46.70
21439;DHT22;10880;50.302;18.736;2023-07-20T13:30:24;28.50;46.70
21439;DHT22;10880;50.302;18.736;2023-07-20T13:32:50;28.40;46.70
21439;DHT22;10880;50.302;18.736;2023-07-20T13:35:17;28.50;46.40
21439;DHT22;10880;50.302;18.736;2023-07-20T13:37:44;28.40;46.50
21439;DHT22;10880;50.302;18.736;2023-07-20T13:40:11;28.40;46.30
21439;DHT22;10880;50.302;18.736;2023-07-20T13:42:42;28.40;47.00
21439;DHT22;10880;50.302;18.736;2023-07-20T13:45:09;28.40;46.30
21439;DHT22;10880;50.302;18.736;2023-07-20T13:47:36;28.40;46.40
21439;DHT22;10880;50.302;18.736;2023-07-20T13:50:04;28.40;46.10
21439;DHT22;10880;50.302;18.736;2023-07-20T13:52:31;28.40;46.00
21439;DHT22;10880;50.302;18.736;2023-07-20T13:55:00;28.40;46.10
21439;DHT22;10880;50.302;18.736;2023-07-20T13:57:28;28.40;46.40
21439;DHT22;10880;50.302;18.736;2023-07-20T13:59:55;28.30;45.90
21439;DHT22;10880;50.302;18.736;2023-07-20T14:02:24;28.30;46.00
21439;DHT22;10880;50.302;18.736;2023-07-20T14:07:18;28.30;45.90
21439;DHT22;10880;50.302;18.736;2023-07-20T14:09:50;28.30;46.00
21439;DHT22;10880;50.302;18.736;2023-07-20T14:12:20;28.20;46.00
21439;DHT22;10880;50.302;18.736;2023-07-20T14:14:48;28.20;46.20
21439;DHT22;10880;50.302;18.736;2023-07-20T14:17:16;28.30;46.50
21439;DHT22;10880;50.302;18.736;2023-07-20T14:19:44;28.20;46.80
21439;DHT22;10880;50.302;18.736;2023-07-20T14:22:11;28.20;46.50
21439;DHT22;10880;50.302;18.736;2023-07-20T14:24:38;28.20;46.70
21439;DHT22;10880;50.302;18.736;2023-07-20T14:27:05;28.20;46.80
21439;DHT22;10880;50.302;18.736;2023-07-20T14:29:32;28.20;46.80
21439;DHT22;10880;50.302;18.736;2023-07-20T14:32:03;28.10;46.70
21439;DHT22;10880;50.302;18.736;2023-07-20T14:34:33;28.10;46.60
21439;DHT22;10880;50.302;18.736;2023-07-20T14:37:00;28.10;46.10
21439;DHT22;10880;50.302;18.736;2023-07-20T14:39:28;28.10;46.30
21439;DHT22;10880;50.302;18.736;2023-07-20T14:41:55;28.10;46.70
21439;DHT22;10880;50.302;18.736;2023-07-20T14:44:22;28.10;46.30
21439;DHT22;10880;50.302;18.736;2023-07-20T14:46:48;28.10;45.90
21439;DHT22;10880;50.302;18.736;2023-07-20T14:49:16;28.10;46.00
21439;DHT22;10880;50.302;18.736;2023-07-20T14:51:44;28.10;45.80
21439;DHT22;10880;50.302;18.736;2023-07-20T14:54:14;28.10;46.10
21439;DHT22;10880;50.302;18.736;2023-07-20T14:56:49;28.10;45.70
21439;DHT22;10880;50.302;18.736;2023-07-20T14:59:17;28.10;45.40
21439;DHT22;10880;50.302;18.736;2023-07-20T15:01:44;28.00;45.40
21439;DHT22;10880;50.302;18.736;2023-07-20T15:04:14;28.10;45.30
21439;DHT22;10880;50.302;18.736;2023-07-20T15:06:41;28.00;46.00
21439;DHT22;10880;50.302;18.736;2023-07-20T15:09:08;28.00;45.80
21439;DHT22;10880;50.302;18.736;2023-07-20T15:11:36;28.00;45.70
21439;DHT22;10880;50.302;18.736;2023-07-20T15:14:04;28.00;45.50
21439;DHT22;10880;50.302;18.736;2023-07-20T15:16:33;28.00;45.70
21439;DHT22;10880;50.302;18.736;2023-07-20T15:19:01;28.00;45.80
21439;DHT22;10880;50.302;18.736;2023-07-20T15:21:30;28.00;45.60
21439;DHT22;10880;50.302;18.736;2023-07-20T15:23:58;28.00;45.70
21439;DHT22;10880;50.302;18.736;2023-07-20T15:26:26;28.00;45.30
21439;DHT22;10880;50.302;18.736;2023-07-20T15:28:53;27.90;45.30
21439;DHT22;10880;50.302;18.736;2023-07-20T15:31:21;28.00;45.80
21439;DHT22;10880;50.302;18.736;2023-07-20T15:33:47;28.00;45.60
21439;DHT22;10880;50.302;18.736;2023-07-20T15:36:14;27.90;45.40
21439;DHT22;10880;50.302;18.736;2023-07-20T15:38:41;27.90;45.80
21439;DHT22;10880;50.302;18.736;2023-07-20T15:41:09;27.90;45.50
21439;DHT22;10880;50.302;18.736;2023-07-20T15:43:36;27.90;45.70
21439;DHT22;10880;50.302;18.736;2023-07-20T15:49:06;27.90;46.00
21439;DHT22;10880;50.302;18.736;2023-07-20T15:51:35;27.90;45.70
21439;DHT22;10880;50.302;18.736;2023-07-20T15:54:09;27.80;45.30
21439;DHT22;10880;50.302;18.736;2023-07-20T15:56:38;27.80;45.30
21439;DHT22;10880;50.302;18.736;2023-07-20T15:59:08;27.80;45.20
21439;DHT22;10880;50.302;18.736;2023-07-20T16:01:39;27.80;45.80
21439;DHT22;10880;50.302;18.736;2023-07-20T16:04:06;27.80;45.30
21439;DHT22;10880;50.302;18.736;2023-07-20T16:06:34;27.80;45.40
21439;DHT22;10880;50.302;18.736;2023-07-20T16:09:05;27.80;45.30
21439;DHT22;10880;50.302;18.736;2023-07-20T16:11:36;27.70;45.40
21439;DHT22;10880;50.302;18.736;2023-07-20T16:14:02;27.70;45.50
21439;DHT22;10880;50.302;18.736;2023-07-20T16:16:30;27.70;45.70
21439;DHT22;10880;50.302;18.736;2023-07-20T16:19:03;27.70;45.80
21439;DHT22;10880;50.302;18.736;2023-07-20T16:21:31;27.70;45.80
21439;DHT22;10880;50.302;18.736;2023-07-20T16:23:58;27.70;45.40
21439;DHT22;10880;50.302;18.736;2023-07-20T16:26:25;27.60;45.50
21439;DHT22;10880;50.302;18.736;2023-07-20T16:28:52;27.60;45.40
21439;DHT22;10880;50.302;18.736;2023-07-20T16:31:26;27.60;45.30
21439;DHT22;10880;50.302;18.736;2023-07-20T16:33:54;27.60;45.30
21439;DHT22;10880;50.302;18.736;2023-07-20T16:36:22;27.60;45.40
21439;DHT22;10880;50.302;18.736;2023-07-20T16:38:49;27.60;45.30
21439;DHT22;10880;50.302;18.736;2023-07-20T16:41:15;27.60;45.30
21439;DHT22;10880;50.302;18.736;2023-07-20T16:43:42;27.50;45.20
21439;DHT22;10880;50.302;18.736;2023-07-20T16:46:11;27.60;45.60
21439;DHT22;10880;50.302;18.736;2023-07-20T16:48:41;27.60;45.30
21439;DHT22;10880;50.302;18.736;2023-07-20T16:51:07;27.60;45.20
21439;DHT22;10880;50.302;18.736;2023-07-20T16:56:06;27.50;45.10
21439;DHT22;10880;50.302;18.736;2023-07-20T16:58:59;27.50;45.10
21439;DHT22;10880;50.302;18.736;2023-07-20T17:01:26;27.50;45.00
21439;DHT22;10880;50.302;18.736;2023-07-20T17:03:53;27.50;45.30
21439;DHT22;10880;50.302;18.736;2023-07-20T17:06:20;27.50;45.30
21439;DHT22;10880;50.302;18.736;2023-07-20T17:08:49;27.50;45.30
21439;DHT22;10880;50.302;18.736;2023-07-20T17:11:17;27.50;45.30
21439;DHT22;10880;50.302;18.736;2023-07-20T17:13:51;27.40;45.50
21439;DHT22;10880;50.302;18.736;2023-07-20T17:16:17;27.40;44.80
21439;DHT22;10880;50.302;18.736;2023-07-20T17:18:44;27.40;44.70
21439;DHT22;10880;50.302;18.736;2023-07-20T17:21:13;27.40;45.10
21439;DHT22;10880;50.302;18.736;2023-07-20T17:23:42;27.40;45.40
21439;DHT22;10880;50.302;18.736;2023-07-20T17:26:10;27.30;44.80
21439;DHT22;10880;50.302;18.736;2023-07-20T17:28:38;27.30;44.80
21439;DHT22;10880;50.302;18.736;2023-07-20T17:31:05;27.40;44.80
21439;DHT22;10880;50.302;18.736;2023-07-20T17:33:32;27.30;45.20
21439;DHT22;10880;50.302;18.736;2023-07-20T17:36:04;27.30;44.70
21439;DHT22;10880;50.302;18.736;2023-07-20T17:38:32;27.30;45.70
21439;DHT22;10880;50.302;18.736;2023-07-20T17:40:59;27.30;44.80
21439;DHT22;10880;50.302;18.736;2023-07-20T17:43:27;27.20;44.90
21439;DHT22;10880;50.302;18.736;2023-07-20T17:45:54;27.20;44.80
21439;DHT22;10880;50.302;18.736;2023-07-20T17:48:21;27.20;44.80
21439;DHT22;10880;50.302;18.736;2023-07-20T17:50:47;27.20;45.40
21439;DHT22;10880;50.302;18.736;2023-07-20T17:53:14;27.20;44.90
21439;DHT22;10880;50.302;18.736;2023-07-20T17:55:41;27.10;45.50
21439;DHT22;10880;50.302;18.736;2023-07-20T17:58:09;27.10;45.10
21439;DHT22;10880;50.302;18.736;2023-07-20T18:00:36;27.10;45.00
21439;DHT22;10880;50.302;18.736;2023-07-20T18:03:03;27.10;45.00
21439;DHT22;10880;50.302;18.736;2023-07-20T18:05:43;27.00;45.50
21439;DHT22;10880;50.302;18.736;2023-07-20T18:08:12;27.00;44.90
21439;DHT22;10880;50.302;18.736;2023-07-20T18:10:40;27.00;45.00